Terminal Aerodrome Forecast
Issued by NWS

Home | Current Version | Previous Version | Text Only | Print | Product List | Glossary On
Versions: 1 2 3 4 5 6 7 8 9 10 11 12 13 14 15 16 17 18
000
FTUS43 KIND 120821 AAA
TAFLAF
TAF AMD
KLAF 120821Z 1208/1306 32017G25KT P6SM SCT025 OVC040
      TEMPO 1208/1210 OVC025
     FM121200 32017G27KT P6SM VCSH SCT070
     FM130000 31009KT P6SM FEW250
      AMD LTD TO CLD VIS AND WIND TIL 121400=

USA.gov is the U.S. government's official web portal to all federal, state and local government web resources and services.